createdAt,value
2018-10-12T00:00:43.755Z,9.20
2018-10-12T00:03:17.989Z,9.17
2018-10-12T00:05:50.642Z,9.23
2018-10-12T00:08:23.100Z,9.03
2018-10-12T00:10:56.016Z,9.63
2018-10-12T00:13:29.931Z,8.87
2018-10-12T00:16:02.545Z,9.27
2018-10-12T00:18:35.365Z,8.98
2018-10-12T00:21:08.381Z,7.47
2018-10-12T00:23:40.774Z,9.13
2018-10-12T00:26:13.389Z,8.33
2018-10-12T00:28:47.058Z,8.07
2018-10-12T00:31:19.977Z,8.23
2018-10-12T00:33:53.221Z,7.47
2018-10-12T00:36:29.118Z,7.63
2018-10-12T00:39:01.862Z,7.57
2018-10-12T00:41:34.779Z,7.37
2018-10-12T00:44:08.123Z,7.77
2018-10-12T00:46:41.393Z,7.53
2018-10-12T00:49:13.987Z,7.77
2018-10-12T00:51:47.000Z,7.78
2018-10-12T00:54:19.508Z,7.10
2018-10-12T00:56:52.080Z,7.20
2018-10-12T00:59:26.361Z,7.33
2018-10-12T01:01:59.033Z,7.37
2018-10-12T01:04:31.986Z,7.20
2018-10-12T01:07:06.659Z,7.23
2018-10-12T01:09:40.492Z,7.37
2018-10-12T01:12:39.181Z,7.20
2018-10-12T01:15:13.510Z,7.07
2018-10-12T01:17:46.269Z,6.87
2018-10-12T01:20:19.720Z,6.90
2018-10-12T01:22:53.720Z,6.73
2018-10-12T01:25:26.753Z,6.77
2018-10-12T01:28:00.920Z,6.33
2018-10-12T01:30:33.501Z,6.47
2018-10-12T01:33:06.915Z,6.90
2018-10-12T01:35:40.677Z,6.53
2018-10-12T01:38:13.594Z,6.00
2018-10-12T01:40:46.334Z,6.07
2018-10-12T01:43:19.571Z,6.10
2018-10-12T01:45:53.307Z,6.67
2018-10-12T01:48:26.018Z,6.00
2018-10-12T01:51:02.566Z,6.17
2018-10-12T01:53:35.314Z,6.37
2018-10-12T01:56:08.641Z,6.70
2018-10-12T01:58:42.097Z,6.50
2018-10-12T02:01:14.764Z,5.87
2018-10-12T02:03:48.324Z,6.67
2018-10-12T02:06:21.090Z,6.07
2018-10-12T02:08:53.774Z,6.00
2018-10-12T02:11:27.584Z,6.20
2018-10-12T02:14:00.739Z,6.33
2018-10-12T02:16:36.553Z,6.33
2018-10-12T02:19:10.045Z,5.50
2018-10-12T02:21:42.889Z,6.18
2018-10-12T02:24:15.344Z,6.03
2018-10-12T02:26:47.890Z,5.80
2018-10-12T02:29:21.725Z,6.27
2018-10-12T02:31:57.478Z,6.22
2018-10-12T02:34:30.470Z,5.53
2018-10-12T02:37:03.742Z,5.87
2018-10-12T02:39:36.402Z,6.05
2018-10-12T02:42:09.069Z,5.95
2018-10-12T02:44:41.882Z,6.17
2018-10-12T02:47:14.446Z,5.63
2018-10-12T02:49:47.052Z,5.97
2018-10-12T02:52:20.017Z,5.80
2018-10-12T02:54:52.652Z,6.37
2018-10-12T02:57:25.433Z,6.33
2018-10-12T02:59:58.633Z,5.93
2018-10-12T03:02:31.400Z,5.53
2018-10-12T03:05:04.045Z,5.90
2018-10-12T03:07:37.279Z,5.77
2018-10-12T03:10:10.590Z,5.10
2018-10-12T03:12:44.652Z,5.27
2018-10-12T03:15:21.447Z,5.80
2018-10-12T03:17:54.430Z,5.70
2018-10-12T03:20:27.209Z,6.00
2018-10-12T03:23:00.190Z,5.80
2018-10-12T03:25:33.545Z,5.97
2018-10-12T03:28:29.585Z,5.03
2018-10-12T03:31:08.072Z,5.57
2018-10-12T03:33:43.045Z,5.63
2018-10-12T03:36:17.600Z,4.93
2018-10-12T03:38:50.703Z,5.30
2018-10-12T03:41:23.762Z,5.30
2018-10-12T03:43:56.661Z,5.33
2018-10-12T03:46:29.149Z,5.37
2018-10-12T03:49:01.982Z,5.78
2018-10-12T03:51:34.904Z,5.40
2018-10-12T03:54:08.080Z,5.27
2018-10-12T03:56:40.729Z,4.80
2018-10-12T03:59:14.979Z,5.00
2018-10-12T04:01:48.459Z,5.83
2018-10-12T04:04:22.736Z,5.35
2018-10-12T04:06:55.897Z,5.43
2018-10-12T04:09:29.492Z,5.13
2018-10-12T04:12:02.596Z,5.30
2018-10-12T04:14:37.534Z,4.67
2018-10-12T04:17:10.320Z,5.17
2018-10-12T04:19:43.048Z,4.63
2018-10-12T04:22:21.570Z,5.40
2018-10-12T04:24:54.428Z,5.00
2018-10-12T04:27:27.000Z,4.87
2018-10-12T04:30:04.616Z,4.60
2018-10-12T04:32:38.484Z,5.57
2018-10-12T04:35:11.131Z,4.67
2018-10-12T04:37:45.978Z,4.87
2018-10-12T04:41:16.008Z,4.80
2018-10-12T04:43:50.479Z,5.40
2018-10-12T04:46:33.812Z,4.60
2018-10-12T04:49:09.973Z,4.73
2018-10-12T04:51:55.985Z,4.73
2018-10-12T04:54:32.173Z,4.47
2018-10-12T04:57:05.965Z,5.07
2018-10-12T04:59:39.242Z,4.90
2018-10-12T05:02:12.566Z,6.27
2018-10-12T05:04:45.767Z,4.87
2018-10-12T05:07:18.860Z,5.10
2018-10-12T05:09:51.432Z,4.60
2018-10-12T05:12:25.008Z,4.87
2018-10-12T05:15:00.132Z,5.30
2018-10-12T05:17:36.362Z,5.40
2018-10-12T05:20:08.956Z,5.77
2018-10-12T05:22:42.078Z,6.00
2018-10-12T05:25:15.101Z,5.90
2018-10-12T05:27:48.253Z,6.15
2018-10-12T05:30:21.131Z,5.37
2018-10-12T05:32:54.068Z,5.67
2018-10-12T05:35:26.946Z,5.93
2018-10-12T05:37:59.647Z,6.37
2018-10-12T05:40:33.332Z,6.37
2018-10-12T05:43:08.366Z,6.13
2018-10-12T05:45:42.613Z,5.70
2018-10-12T05:48:39.812Z,6.47
2018-10-12T05:51:18.906Z,6.07
2018-10-12T05:53:53.666Z,5.95
2018-10-12T05:56:35.244Z,5.90
2018-10-12T05:59:12.301Z,9.23
2018-10-12T06:01:45.460Z,5.93
2018-10-12T06:04:19.629Z,6.07
2018-10-12T06:06:52.773Z,5.50
2018-10-12T06:09:27.265Z,6.00
2018-10-12T06:11:59.998Z,5.37
2018-10-12T06:14:33.131Z,5.43
2018-10-12T06:17:06.706Z,6.07
2018-10-12T06:19:41.156Z,5.37
2018-10-12T06:22:20.030Z,5.20
2018-10-12T06:24:52.520Z,5.63
2018-10-12T06:27:25.809Z,5.50
2018-10-12T06:29:59.115Z,4.83
2018-10-12T06:32:32.082Z,5.30
2018-10-12T06:35:05.158Z,5.60
2018-10-12T06:37:38.317Z,5.10
2018-10-12T06:40:10.955Z,4.70
2018-10-12T06:42:43.799Z,4.83
2018-10-12T06:45:16.377Z,5.00
2018-10-12T06:47:49.156Z,4.63
2018-10-12T06:50:21.719Z,4.83
2018-10-12T06:52:54.831Z,4.50
2018-10-12T06:55:27.683Z,4.83
2018-10-12T06:58:00.244Z,5.00
2018-10-12T07:00:33.389Z,5.30
2018-10-12T07:03:07.020Z,4.87
2018-10-12T07:05:40.253Z,4.80
2018-10-12T07:08:15.051Z,5.27
2018-10-12T07:10:52.687Z,4.80
2018-10-12T07:13:27.164Z,4.30
2018-10-12T07:16:00.186Z,4.70
2018-10-12T07:18:33.237Z,4.50
2018-10-12T07:21:06.659Z,4.50
2018-10-12T07:23:40.232Z,4.62
2018-10-12T07:26:15.193Z,4.43
2018-10-12T07:28:53.068Z,4.70
2018-10-12T07:31:27.366Z,4.40
2018-10-12T07:34:01.108Z,4.80
2018-10-12T07:36:33.788Z,4.40
2018-10-12T07:39:08.546Z,4.60
2018-10-12T07:41:44.802Z,3.97
2018-10-12T07:44:18.457Z,4.17
2018-10-12T07:46:51.392Z,4.30
2018-10-12T07:49:23.989Z,4.07
2018-10-12T07:51:59.205Z,3.77
2018-10-12T07:54:32.504Z,3.93
2018-10-12T07:57:12.098Z,4.10
2018-10-12T07:59:45.716Z,3.90
2018-10-12T08:02:19.162Z,3.77
2018-10-12T08:04:53.036Z,3.77
2018-10-12T08:07:26.915Z,3.60
2018-10-12T08:10:02.088Z,3.93
2018-10-12T08:12:37.799Z,4.20
2018-10-12T08:15:16.324Z,4.00
2018-10-12T08:17:49.525Z,3.90
2018-10-12T08:20:23.016Z,3.90
2018-10-12T08:22:58.844Z,4.20
2018-10-12T08:25:32.745Z,3.83
2018-10-12T08:28:07.684Z,4.03
2018-10-12T08:30:45.688Z,3.97
2018-10-12T08:33:25.399Z,3.95
2018-10-12T08:35:59.872Z,4.35
2018-10-12T08:38:35.971Z,3.95
2018-10-12T08:41:10.872Z,3.30
2018-10-12T08:43:44.368Z,3.87
2018-10-12T08:46:17.351Z,3.33
2018-10-12T08:48:52.036Z,3.20
2018-10-12T08:51:25.004Z,3.07
2018-10-12T08:53:57.680Z,3.70
2018-10-12T08:56:32.458Z,3.35
2018-10-12T08:59:05.473Z,3.40
2018-10-12T09:01:38.041Z,3.47
2018-10-12T09:04:12.424Z,2.90
2018-10-12T09:06:46.139Z,3.40
2018-10-12T09:09:18.873Z,3.40
2018-10-12T09:11:51.815Z,2.93
2018-10-12T09:14:25.674Z,3.17
2018-10-12T09:17:00.518Z,3.30
2018-10-12T09:19:34.093Z,3.60
2018-10-12T09:22:07.709Z,3.17
2018-10-12T09:24:40.241Z,3.53
2018-10-12T09:27:14.809Z,3.37
2018-10-12T09:29:47.558Z,3.45
2018-10-12T09:32:20.154Z,3.23
2018-10-12T09:34:54.570Z,3.03
2018-10-12T09:37:28.910Z,3.35
2018-10-12T09:40:02.462Z,3.37
2018-10-12T09:42:35.198Z,3.20
2018-10-12T09:45:09.993Z,3.03
2018-10-12T09:47:45.221Z,3.13
2018-10-12T09:50:18.544Z,3.00
2018-10-12T09:52:52.735Z,3.20
2018-10-12T09:55:30.061Z,3.03
2018-10-12T09:58:06.240Z,3.20
2018-10-12T10:00:46.012Z,3.10
2018-10-12T10:03:24.088Z,2.70
2018-10-12T10:06:00.365Z,3.10
2018-10-12T10:08:36.700Z,2.40
2018-10-12T10:11:10.063Z,2.80
2018-10-12T10:13:46.791Z,2.70
2018-10-12T10:16:21.705Z,2.70
2018-10-12T10:18:55.225Z,2.77
2018-10-12T10:21:30.425Z,2.70
2018-10-12T10:24:03.527Z,2.57
2018-10-12T10:26:38.445Z,2.53
2018-10-12T10:29:12.552Z,2.70
2018-10-12T10:31:46.966Z,2.30
2018-10-12T10:34:21.875Z,2.10
2018-10-12T10:36:54.573Z,2.10
2018-10-12T10:39:28.499Z,2.03
2018-10-12T10:42:01.260Z,2.20
2018-10-12T10:44:35.097Z,2.40
2018-10-12T10:47:09.528Z,2.00
2018-10-12T10:49:42.356Z,1.80
2018-10-12T10:52:15.106Z,2.17
2018-10-12T10:54:53.158Z,2.30
2018-10-12T10:57:25.909Z,2.27
2018-10-12T10:59:59.661Z,2.03
2018-10-12T11:02:35.784Z,2.20
2018-10-12T11:05:10.445Z,2.30
2018-10-12T11:07:50.385Z,2.00
2018-10-12T11:10:24.264Z,2.10
2018-10-12T11:12:59.734Z,1.83
2018-10-12T11:15:33.750Z,2.40
2018-10-12T11:18:08.473Z,1.80
2018-10-12T11:20:41.293Z,2.00
2018-10-12T11:23:16.986Z,1.70
2018-10-12T11:25:59.161Z,2.23
2018-10-12T11:28:31.937Z,1.90
2018-10-12T11:31:07.277Z,1.97
2018-10-12T11:33:41.559Z,2.07
2018-10-12T11:36:15.146Z,2.00
2018-10-12T11:38:47.966Z,2.23
2018-10-12T11:41:21.192Z,2.00
2018-10-12T11:43:53.903Z,2.20
2018-10-12T11:46:28.466Z,2.50
2018-10-12T11:49:02.305Z,2.03
2018-10-12T11:51:35.876Z,2.27
2018-10-12T11:54:12.117Z,2.30
2018-10-12T11:56:51.691Z,2.50
2018-10-12T11:59:28.715Z,2.23
2018-10-12T12:02:03.337Z,2.23
2018-10-12T12:04:36.672Z,2.00
2018-10-12T12:07:11.194Z,1.87
2018-10-12T12:09:45.585Z,2.30
2018-10-12T12:12:19.597Z,1.80
2018-10-12T12:14:54.566Z,2.00
2018-10-12T12:17:27.791Z,2.10
2018-10-12T12:20:02.871Z,2.07
2018-10-12T12:22:40.435Z,1.80
2018-10-12T12:25:17.284Z,2.07
2018-10-12T12:27:50.634Z,1.97
2018-10-12T12:30:23.244Z,1.87
2018-10-12T12:32:57.968Z,2.43
2018-10-12T12:35:31.195Z,2.00
2018-10-12T12:38:03.428Z,1.70
2018-10-12T12:40:36.941Z,2.00
2018-10-12T12:43:10.633Z,1.80
2018-10-12T12:45:43.946Z,1.87
2018-10-12T12:48:18.755Z,2.08
2018-10-12T12:50:51.912Z,2.03
2018-10-12T12:53:32.606Z,2.00
2018-10-12T12:56:05.156Z,1.70
2018-10-12T12:58:39.084Z,1.83
2018-10-12T13:01:11.781Z,1.57
2018-10-12T13:03:44.792Z,1.73
2018-10-12T13:06:18.149Z,1.70
2018-10-12T13:08:50.788Z,1.98
2018-10-12T13:11:24.195Z,1.90
2018-10-12T13:13:57.214Z,2.10
2018-10-12T13:16:31.217Z,1.87
2018-10-12T13:19:03.874Z,1.80
2018-10-12T13:21:40.619Z,1.93
2018-10-12T13:24:16.432Z,2.80
2018-10-12T13:26:52.648Z,2.17
2018-10-12T13:29:29.433Z,2.30
2018-10-12T13:32:03.524Z,2.20
2018-10-12T13:34:37.281Z,2.17
2018-10-12T13:37:10.836Z,2.30
2018-10-12T13:39:46.167Z,2.17
2018-10-12T13:42:19.453Z,2.10
2018-10-12T13:44:53.699Z,2.20
2018-10-12T13:47:28.452Z,2.13
2018-10-12T13:50:01.534Z,2.20
2018-10-12T13:52:37.855Z,2.40
2018-10-12T13:55:18.137Z,2.17
2018-10-12T13:57:50.878Z,2.50
2018-10-12T14:00:24.433Z,2.07
2018-10-12T14:02:57.608Z,2.17
2018-10-12T14:05:34.397Z,2.33
2018-10-12T14:08:07.376Z,2.50
2018-10-12T14:10:40.291Z,2.22
2018-10-12T14:13:12.898Z,2.40
2018-10-12T14:15:47.150Z,2.20
2018-10-12T14:18:23.926Z,2.20
2018-10-12T14:21:04.766Z,2.50
2018-10-12T14:23:38.582Z,2.07
2018-10-12T14:26:14.095Z,2.33
2018-10-12T14:28:47.665Z,2.40
2018-10-12T14:31:24.431Z,2.00
2018-10-12T14:33:56.911Z,1.97
2018-10-12T14:36:31.141Z,2.10
2018-10-12T14:39:07.228Z,1.80
2018-10-12T14:41:45.111Z,1.97
2018-10-12T14:44:20.041Z,1.77
2018-10-12T14:46:53.409Z,2.20
2018-10-12T14:49:30.579Z,1.70
2018-10-12T14:52:05.939Z,2.00
2018-10-12T14:54:40.455Z,1.93
2018-10-12T14:57:19.820Z,1.87
2018-10-12T14:59:54.200Z,2.17
2018-10-12T15:02:27.485Z,1.77
2018-10-12T15:05:02.358Z,2.17
2018-10-12T15:07:36.141Z,1.80
2018-10-12T15:10:10.848Z,1.60
2018-10-12T15:12:45.736Z,1.83
2018-10-12T15:15:27.349Z,2.00
2018-10-12T15:18:03.098Z,2.20
2018-10-12T15:20:36.893Z,1.70
2018-10-12T15:23:11.912Z,1.90
2018-10-12T15:25:46.899Z,2.00
2018-10-12T15:28:20.465Z,1.83
2018-10-12T15:30:55.892Z,1.63
2018-10-12T15:33:32.078Z,1.83
2018-10-12T15:36:05.565Z,2.00
2018-10-12T15:38:41.394Z,1.90
2018-10-12T15:41:16.475Z,2.00
2018-10-12T15:43:52.190Z,1.87
2018-10-12T15:46:25.499Z,2.00
2018-10-12T15:48:59.708Z,1.60
2018-10-12T15:51:32.421Z,1.73
2018-10-12T15:54:11.334Z,2.40
2018-10-12T15:56:45.860Z,2.17
2018-10-12T15:59:20.757Z,2.30
2018-10-12T16:01:55.987Z,1.60
2018-10-12T16:04:28.854Z,2.03
2018-10-12T16:07:05.661Z,2.13
2018-10-12T16:09:39.344Z,2.17
2018-10-12T16:12:12.510Z,2.37
2018-10-12T16:14:46.868Z,2.00
2018-10-12T16:17:20.895Z,1.90
2018-10-12T16:19:55.016Z,2.10
2018-10-12T16:22:27.700Z,2.10
2018-10-12T16:25:22.385Z,2.40
2018-10-12T16:27:56.776Z,1.77
2018-10-12T16:30:29.520Z,1.80
2018-10-12T16:33:04.356Z,2.13
2018-10-12T16:35:39.905Z,1.50
2018-10-12T16:38:14.460Z,2.30
2018-10-12T16:40:47.455Z,2.00
2018-10-12T16:43:21.078Z,1.90
2018-10-12T16:45:54.700Z,2.00
2018-10-12T16:48:30.611Z,1.90
2018-10-12T16:51:06.429Z,2.22
2018-10-12T16:53:42.349Z,2.10
2018-10-12T16:56:15.779Z,1.83
2018-10-12T16:58:50.710Z,2.23
2018-10-12T17:01:28.120Z,1.97
2018-10-12T17:04:00.970Z,2.27
2018-10-12T17:06:34.101Z,2.30
2018-10-12T17:09:10.566Z,2.00
2018-10-12T17:11:46.470Z,2.93
2018-10-12T17:14:21.778Z,2.30
2018-10-12T17:16:58.495Z,2.30
2018-10-12T17:19:32.156Z,2.30
2018-10-12T17:22:05.358Z,2.40
2018-10-12T17:24:40.577Z,2.50
2018-10-12T17:27:19.179Z,2.57
2018-10-12T17:29:54.598Z,2.50
2018-10-12T17:32:31.580Z,2.00
2018-10-12T17:35:04.554Z,2.20
2018-10-12T17:37:37.305Z,2.47
2018-10-12T17:40:10.439Z,2.50
2018-10-12T17:42:44.134Z,2.10
2018-10-12T17:45:21.796Z,2.53
2018-10-12T17:47:59.007Z,2.70
2018-10-12T17:50:33.922Z,2.40
2018-10-12T17:53:07.900Z,2.27
2018-10-12T17:55:41.421Z,2.60
2018-10-12T17:58:15.166Z,2.75
2018-10-12T18:00:58.518Z,2.63
2018-10-12T18:03:31.060Z,2.60
2018-10-12T18:16:18.368Z,2.70
2018-10-12T18:18:52.584Z,2.60
2018-10-12T18:21:27.169Z,2.53
2018-10-12T18:24:00.452Z,2.70
2018-10-12T18:26:35.658Z,2.60
2018-10-12T18:29:12.057Z,2.60
2018-10-12T18:31:47.648Z,2.67
2018-10-12T18:34:23.532Z,2.40
2018-10-12T18:37:02.509Z,2.67
2018-10-12T18:39:41.470Z,2.90
2018-10-12T18:42:14.195Z,2.67
2018-10-12T18:44:47.623Z,3.20
2018-10-12T18:47:24.381Z,2.87
2018-10-12T18:50:00.633Z,3.30
2018-10-12T18:52:34.379Z,3.43
2018-10-12T18:55:18.762Z,3.00
2018-10-12T18:57:52.830Z,3.03
2018-10-12T19:00:29.707Z,3.00
2018-10-12T19:03:03.076Z,3.10
2018-10-12T19:05:37.697Z,3.23
2018-10-12T19:08:12.748Z,4.50
2018-10-12T19:10:47.757Z,3.73
2018-10-12T19:13:22.233Z,3.10
2018-10-12T19:15:57.042Z,3.17
2018-10-12T19:18:30.572Z,2.80
2018-10-12T19:21:15.297Z,3.00
2018-10-12T19:23:52.703Z,3.00
2018-10-12T19:26:35.283Z,2.83
2018-10-12T19:29:11.384Z,2.70
2018-10-12T19:31:52.596Z,2.80
2018-10-12T19:34:37.733Z,2.60
2018-10-12T19:37:19.893Z,2.70
2018-10-12T19:39:57.371Z,2.73
2018-10-12T19:42:33.229Z,2.53
2018-10-12T19:45:16.553Z,3.10
2018-10-12T19:47:53.743Z,2.83
2018-10-12T19:50:31.268Z,2.70
2018-10-12T19:53:05.898Z,2.93
2018-10-12T19:55:40.568Z,3.10
2018-10-12T19:58:16.022Z,3.10
2018-10-12T20:00:52.408Z,2.90
2018-10-12T20:03:25.830Z,2.80
2018-10-12T20:06:01.837Z,3.27
2018-10-12T20:08:54.696Z,2.50
2018-10-12T20:11:28.586Z,3.00
2018-10-12T20:14:08.191Z,2.70
2018-10-12T20:16:42.062Z,2.67
2018-10-12T20:19:15.875Z,3.00
2018-10-12T20:21:55.533Z,3.07
2018-10-12T20:24:29.039Z,2.80
2018-10-12T20:27:01.825Z,3.10
2018-10-12T20:29:38.055Z,2.87
2018-10-12T20:32:13.326Z,2.93
2018-10-12T20:34:50.903Z,2.73
2018-10-12T20:37:28.297Z,3.17
2018-10-12T20:40:13.863Z,2.80
2018-10-12T20:42:49.956Z,3.08
2018-10-12T20:45:24.682Z,3.50
2018-10-12T20:48:02.578Z,2.97
2018-10-12T20:50:37.380Z,2.60
2018-10-12T20:53:11.022Z,3.37
2018-10-12T20:55:46.633Z,3.03
2018-10-12T20:58:23.298Z,3.30
2018-10-12T21:00:57.261Z,3.10
2018-10-12T21:03:30.118Z,2.90
2018-10-12T21:06:03.625Z,3.30
2018-10-12T21:08:38.561Z,3.40
2018-10-12T21:11:12.017Z,3.00
2018-10-12T21:13:46.592Z,3.00
2018-10-12T21:16:21.646Z,3.13
2018-10-12T21:18:55.376Z,3.07
2018-10-12T21:21:28.718Z,3.17
2018-10-12T21:24:10.380Z,3.20
2018-10-12T21:26:44.030Z,2.60
2018-10-12T21:29:18.871Z,3.23
2018-10-12T21:31:52.728Z,3.10
2018-10-12T21:34:26.686Z,3.53
2018-10-12T21:37:01.041Z,3.20
2018-10-12T21:39:34.609Z,2.87
2018-10-12T21:42:10.043Z,3.47
2018-10-12T21:44:45.301Z,2.90
2018-10-12T21:47:19.669Z,3.20
2018-10-12T21:49:55.607Z,3.23
2018-10-12T21:52:31.104Z,3.20
2018-10-12T21:55:06.694Z,3.17
2018-10-12T21:57:39.650Z,3.13
2018-10-12T22:00:15.969Z,3.57
2018-10-12T22:02:52.201Z,2.80
2018-10-12T22:05:25.260Z,2.97
2018-10-12T22:07:59.119Z,2.90
2018-10-12T22:10:32.573Z,2.70
2018-10-12T22:13:05.714Z,2.70
2018-10-12T22:15:38.409Z,3.28
2018-10-12T22:18:11.478Z,2.83
2018-10-12T22:20:44.560Z,2.87
2018-10-12T22:23:17.890Z,3.30
2018-10-12T22:25:50.544Z,2.47
2018-10-12T22:28:24.523Z,3.03
2018-10-12T22:30:59.640Z,3.30
2018-10-12T22:33:33.774Z,2.93
2018-10-12T22:36:06.735Z,2.90
2018-10-12T22:38:42.668Z,3.15
2018-10-12T22:41:15.383Z,2.72
2018-10-12T22:43:49.219Z,2.97
2018-10-12T22:46:25.958Z,3.00
2018-10-12T22:48:59.507Z,2.90
2018-10-12T22:51:33.585Z,2.80
2018-10-12T22:54:06.452Z,2.83
2018-10-12T22:56:39.212Z,2.80
2018-10-12T22:59:12.972Z,3.27
2018-10-12T23:01:49.305Z,2.67
2018-10-12T23:04:22.452Z,2.57
2018-10-12T23:06:57.600Z,2.62
2018-10-12T23:09:30.337Z,2.67
2018-10-12T23:12:03.029Z,3.10
2018-10-12T23:14:38.006Z,2.67
2018-10-12T23:17:10.904Z,2.70
2018-10-12T23:19:43.542Z,2.85
2018-10-12T23:22:18.526Z,2.80
2018-10-12T23:24:50.343Z,3.40
2018-10-12T23:27:24.883Z,2.80
2018-10-12T23:30:03.032Z,2.90
2018-10-12T23:32:36.877Z,2.70
2018-10-12T23:35:11.114Z,2.97
2018-10-12T23:37:47.162Z,2.50
2018-10-12T23:40:19.964Z,2.60
2018-10-12T23:42:54.921Z,3.50
2018-10-12T23:45:29.802Z,2.77
2018-10-12T23:48:02.772Z,2.70
2018-10-12T23:50:36.075Z,3.10
2018-10-12T23:53:09.163Z,3.40
2018-10-12T23:55:42.300Z,2.92
2018-10-12T23:58:16.729Z,3.00
